sensor_id;sensor_type;location;lat;lon;timestamp;pressure;altitude;pressure_sealevel;temperature;humidity
13836;BME280;6988;52.614;13.500;2024-03-23T00:53:58;54639.59;;;-143.77;86.72
13836;BME280;6988;52.614;13.500;2024-03-23T00:58:50;54639.59;;;-143.77;86.97
13836;BME280;6988;52.614;13.500;2024-03-23T01:03:42;54680.66;;;-143.77;87.12
13836;BME280;6988;52.614;13.500;2024-03-23T01:08:34;54639.59;;;-143.77;87.06
13836;BME280;6988;52.614;13.500;2024-03-23T01:13:27;54662.19;;;-143.77;87.22
13836;BME280;6988;52.614;13.500;2024-03-23T01:18:20;54639.59;;;-143.77;87.19
13836;BME280;6988;52.614;13.500;2024-03-23T01:23:12;54643.72;;;-143.77;87.35
13836;BME280;6988;52.614;13.500;2024-03-23T01:28:05;54660.13;;;-143.77;87.47
13836;BME280;6988;52.614;13.500;2024-03-23T01:33:00;54637.56;;;-143.77;87.54
13836;BME280;6988;52.614;13.500;2024-03-23T01:37:53;54635.50;;;-143.77;87.41
13836;BME280;6988;52.614;13.500;2024-03-23T01:42:55;54653.97;;;-143.77;87.33
13836;BME280;6988;52.614;13.500;2024-03-23T01:47:47;54656.03;;;-143.77;87.19
13836;BME280;6988;52.614;13.500;2024-03-23T01:52:41;54656.03;;;-143.77;87.23
13836;BME280;6988;52.614;13.500;2024-03-23T01:57:33;54619.09;;;-143.77;87.06
13836;BME280;6988;52.614;13.500;2024-03-23T02:02:25;54668.34;;;-143.77;87.19
13836;BME280;6988;52.614;13.500;2024-03-23T02:07:17;54664.22;;;-143.77;87.29
13836;BME280;6988;52.614;13.500;2024-03-23T02:12:10;54668.34;;;-143.77;87.16
13836;BME280;6988;52.614;13.500;2024-03-23T02:17:02;54684.75;;;-143.77;86.91
13836;BME280;6988;52.614;13.500;2024-03-23T02:21:54;54641.66;;;-143.77;86.69
13836;BME280;6988;52.614;13.500;2024-03-23T02:26:47;54639.59;;;-143.77;86.69
13836;BME280;6988;52.614;13.500;2024-03-23T02:31:40;54672.44;;;-143.77;86.75
13836;BME280;6988;52.614;13.500;2024-03-23T02:36:32;54672.44;;;-143.77;86.98
13836;BME280;6988;52.614;13.500;2024-03-23T02:41:23;54651.91;;;-143.77;87.24
13836;BME280;6988;52.614;13.500;2024-03-23T02:46:17;54647.81;;;-143.77;87.48
13836;BME280;6988;52.614;13.500;2024-03-23T02:51:11;54668.34;;;-143.77;87.86
13836;BME280;6988;52.614;13.500;2024-03-23T02:56:03;54670.38;;;-143.77;87.95
13836;BME280;6988;52.614;13.500;2024-03-23T03:00:55;54668.34;;;-143.77;88.03
13836;BME280;6988;52.614;13.500;2024-03-23T03:05:55;54664.22;;;-143.77;88.27
13836;BME280;6988;52.614;13.500;2024-03-23T03:10:47;54692.97;;;-143.77;88.45
13836;BME280;6988;52.614;13.500;2024-03-23T03:15:40;54678.59;;;-143.77;88.69
13836;BME280;6988;52.614;13.500;2024-03-23T03:20:32;54680.66;;;-143.77;88.97
13836;BME280;6988;52.614;13.500;2024-03-23T03:25:25;54664.22;;;-143.77;89.19
13836;BME280;6988;52.614;13.500;2024-03-23T03:30:17;54656.03;;;-143.77;89.37
13836;BME280;6988;52.614;13.500;2024-03-23T03:35:09;54658.06;;;-143.77;89.56
13836;BME280;6988;52.614;13.500;2024-03-23T03:40:01;54692.97;;;-143.77;89.61
13836;BME280;6988;52.614;13.500;2024-03-23T03:44:55;54703.22;;;-143.77;89.66
13836;BME280;6988;52.614;13.500;2024-03-23T03:49:47;54695.00;;;-143.77;89.52
13836;BME280;6988;52.614;13.500;2024-03-23T03:54:39;54692.97;;;-143.77;89.29
13836;BME280;6988;52.614;13.500;2024-03-23T03:59:31;54668.34;;;-143.77;89.06
13836;BME280;6988;52.614;13.500;2024-03-23T04:04:24;54668.34;;;-143.77;89.11
13836;BME280;6988;52.614;13.500;2024-03-23T04:09:16;54692.97;;;-143.77;88.71
13836;BME280;6988;52.614;13.500;2024-03-23T04:14:08;54676.53;;;-143.77;88.20
13836;BME280;6988;52.614;13.500;2024-03-23T04:19:00;54688.84;;;-143.77;87.93
13836;BME280;6988;52.614;13.500;2024-03-23T04:23:53;54688.84;;;-143.77;87.82
13836;BME280;6988;52.614;13.500;2024-03-23T04:28:45;54688.84;;;-143.77;88.35
13836;BME280;6988;52.614;13.500;2024-03-23T04:33:37;54692.97;;;-143.77;88.52
13836;BME280;6988;52.614;13.500;2024-03-23T04:38:29;54717.59;;;-143.77;88.52
13836;BME280;6988;52.614;13.500;2024-03-23T04:43:23;54713.47;;;-143.77;88.60
13836;BME280;6988;52.614;13.500;2024-03-23T04:48:15;54692.97;;;-143.77;88.65
13836;BME280;6988;52.614;13.500;2024-03-23T04:53:08;54684.75;;;-143.77;88.78
13836;BME280;6988;52.614;13.500;2024-03-23T04:58:00;54762.72;;;-143.77;88.73
13836;BME280;6988;52.614;13.500;2024-03-23T05:02:53;54703.22;;;-143.77;88.60
13836;BME280;6988;52.614;13.500;2024-03-23T05:07:45;54684.75;;;-143.77;88.58
13836;BME280;6988;52.614;13.500;2024-03-23T05:12:37;54697.06;;;-143.77;87.97
13836;BME280;6988;52.614;13.500;2024-03-23T05:17:29;54676.53;;;-143.77;86.38
13836;BME280;6988;52.614;13.500;2024-03-23T05:22:23;54721.69;;;-143.77;86.58
13836;BME280;6988;52.614;13.500;2024-03-23T05:27:15;54707.31;;;-143.77;86.49
13836;BME280;6988;52.614;13.500;2024-03-23T05:32:07;54703.22;;;-143.77;86.47
13836;BME280;6988;52.614;13.500;2024-03-23T05:36:59;54684.75;;;-143.77;86.18
13836;BME280;6988;52.614;13.500;2024-03-23T05:41:55;54729.91;;;-143.77;86.49
13836;BME280;6988;52.614;13.500;2024-03-23T05:46:47;54715.53;;;-143.77;86.22
13836;BME280;6988;52.614;13.500;2024-03-23T05:51:39;54721.69;;;-143.77;86.38
13836;BME280;6988;52.614;13.500;2024-03-23T05:56:31;54692.97;;;-143.77;85.81
13836;BME280;6988;52.614;13.500;2024-03-23T06:01:24;54729.91;;;-143.77;86.16
13836;BME280;6988;52.614;13.500;2024-03-23T06:06:19;54705.28;;;-143.77;86.24
13836;BME280;6988;52.614;13.500;2024-03-23T06:11:11;54697.06;;;-143.77;86.64
13836;BME280;6988;52.614;13.500;2024-03-23T06:16:05;54713.47;;;-143.77;86.48
13836;BME280;6988;52.614;13.500;2024-03-23T06:20:59;54688.84;;;-143.77;86.84
13836;BME280;6988;52.614;13.500;2024-03-23T06:25:50;54715.53;;;-143.77;87.08
13836;BME280;6988;52.614;13.500;2024-03-23T06:30:42;54703.22;;;-143.77;87.08
13836;BME280;6988;52.614;13.500;2024-03-23T06:35:34;54707.31;;;-143.77;86.51
13836;BME280;6988;52.614;13.500;2024-03-23T06:40:27;54709.38;;;-143.77;86.50
13836;BME280;6988;52.614;13.500;2024-03-23T06:45:19;54711.44;;;-143.77;86.80
13836;BME280;6988;52.614;13.500;2024-03-23T06:50:15;54699.13;;;-143.77;87.04
13836;BME280;6988;52.614;13.500;2024-03-23T06:55:07;54680.66;;;-143.77;86.96
13836;BME280;6988;52.614;13.500;2024-03-23T07:00:02;54680.66;;;-143.77;87.04
13836;BME280;6988;52.614;13.500;2024-03-23T07:04:54;54676.53;;;-143.77;87.14
13836;BME280;6988;52.614;13.500;2024-03-23T07:09:46;54676.53;;;-143.77;87.31
13836;BME280;6988;52.614;13.500;2024-03-23T07:14:39;54738.09;;;-143.77;86.99
13836;BME280;6988;52.614;13.500;2024-03-23T07:19:33;54692.97;;;-143.77;86.89
13836;BME280;6988;52.614;13.500;2024-03-23T07:24:25;54664.22;;;-143.77;86.99
13836;BME280;6988;52.614;13.500;2024-03-23T07:29:17;54672.44;;;-143.77;86.83
13836;BME280;6988;52.614;13.500;2024-03-23T07:34:09;54719.63;;;-143.77;86.57
13836;BME280;6988;52.614;13.500;2024-03-23T07:39:03;54713.47;;;-143.77;85.95
13836;BME280;6988;52.614;13.500;2024-03-23T07:43:54;54684.75;;;-143.77;85.36
13836;BME280;6988;52.614;13.500;2024-03-23T07:48:46;54709.38;;;-143.77;85.48
13836;BME280;6988;52.614;13.500;2024-03-23T07:53:39;54686.81;;;-143.77;84.43
13836;BME280;6988;52.614;13.500;2024-03-23T07:58:34;54717.59;;;-143.77;84.51
13836;BME280;6988;52.614;13.500;2024-03-23T08:03:26;54680.66;;;-143.77;84.65
13836;BME280;6988;52.614;13.500;2024-03-23T08:08:18;54637.56;;;-143.77;83.15
13836;BME280;6988;52.614;13.500;2024-03-23T08:13:11;54637.56;;;-143.77;83.04
13836;BME280;6988;52.614;13.500;2024-03-23T08:18:04;54686.81;;;-143.77;83.35
13836;BME280;6988;52.614;13.500;2024-03-23T08:22:56;54736.06;;;-143.77;83.41
13836;BME280;6988;52.614;13.500;2024-03-23T08:27:48;54725.78;;;-143.77;83.26
13836;BME280;6988;52.614;13.500;2024-03-23T08:32:41;54717.59;;;-143.77;83.13
13836;BME280;6988;52.614;13.500;2024-03-23T08:37:34;54719.63;;;-143.77;83.08
13836;BME280;6988;52.614;13.500;2024-03-23T08:42:26;54725.78;;;-143.77;83.00
13836;BME280;6988;52.614;13.500;2024-03-23T08:47:18;54705.28;;;-143.77;83.60
13836;BME280;6988;52.614;13.500;2024-03-23T08:52:10;54727.84;;;-143.77;83.70
13836;BME280;6988;52.614;13.500;2024-03-23T08:57:04;54705.28;;;-143.77;83.91
13836;BME280;6988;52.614;13.500;2024-03-23T09:01:56;54727.84;;;-143.77;82.86
13836;BME280;6988;52.614;13.500;2024-03-23T09:06:48;54703.22;;;-143.77;83.15
13836;BME280;6988;52.614;13.500;2024-03-23T09:11:40;54736.06;;;-143.77;83.80
13836;BME280;6988;52.614;13.500;2024-03-23T09:16:33;54775.03;;;-143.77;83.38
13836;BME280;6988;52.614;13.500;2024-03-23T09:21:25;54752.47;;;-143.77;83.20
13836;BME280;6988;52.614;13.500;2024-03-23T09:26:17;54770.94;;;-143.77;82.86
13836;BME280;6988;52.614;13.500;2024-03-23T09:31:10;54764.78;;;-143.77;82.51
13836;BME280;6988;52.614;13.500;2024-03-23T09:36:07;54789.41;;;-143.77;83.10
13836;BME280;6988;52.614;13.500;2024-03-23T09:40:59;54758.63;;;-143.77;82.65
13836;BME280;6988;52.614;13.500;2024-03-23T09:45:53;54775.03;;;-143.77;82.05
13836;BME280;6988;52.614;13.500;2024-03-23T09:50:46;54758.63;;;-143.77;82.25
13836;BME280;6988;52.614;13.500;2024-03-23T09:55:42;54762.72;;;-143.77;82.56
13836;BME280;6988;52.614;13.500;2024-03-23T10:00:35;54744.25;;;-143.77;82.94
13836;BME280;6988;52.614;13.500;2024-03-23T10:05:28;54773.00;;;-143.77;82.77
13836;BME280;6988;52.614;13.500;2024-03-23T10:10:22;54777.09;;;-143.77;82.12
13836;BME280;6988;52.614;13.500;2024-03-23T10:15:21;54766.84;;;-143.77;83.17
13836;BME280;6988;52.614;13.500;2024-03-23T10:20:19;54764.78;;;-143.77;83.30
13836;BME280;6988;52.614;13.500;2024-03-23T10:25:13;54783.25;;;-143.77;83.10
13836;BME280;6988;52.614;13.500;2024-03-23T10:30:10;54775.03;;;-143.77;82.62
13836;BME280;6988;52.614;13.500;2024-03-23T10:35:18;54770.94;;;-143.77;82.84
13836;BME280;6988;52.614;13.500;2024-03-23T10:40:12;54781.19;;;-143.77;82.52
13836;BME280;6988;52.614;13.500;2024-03-23T10:45:05;54783.25;;;-143.77;81.72
13836;BME280;6988;52.614;13.500;2024-03-23T10:49:57;54768.88;;;-143.77;80.49
13836;BME280;6988;52.614;13.500;2024-03-23T10:54:51;54777.09;;;-143.77;80.32
13836;BME280;6988;52.614;13.500;2024-03-23T10:59:45;54777.09;;;-143.77;81.25
13836;BME280;6988;52.614;13.500;2024-03-23T11:04:39;54791.47;;;-143.77;81.20
13836;BME280;6988;52.614;13.500;2024-03-23T11:09:41;54781.19;;;-143.77;81.68
13836;BME280;6988;52.614;13.500;2024-03-23T11:14:37;54783.25;;;-143.77;81.88
13836;BME280;6988;52.614;13.500;2024-03-23T11:19:35;54783.25;;;-143.77;81.35
13836;BME280;6988;52.614;13.500;2024-03-23T11:24:27;54762.72;;;-143.77;81.67
13836;BME280;6988;52.614;13.500;2024-03-23T11:29:19;54754.53;;;-143.77;82.35
13836;BME280;6988;52.614;13.500;2024-03-23T11:34:13;54775.03;;;-143.77;81.40
13836;BME280;6988;52.614;13.500;2024-03-23T11:39:13;54738.09;;;-143.77;81.26
13836;BME280;6988;52.614;13.500;2024-03-23T11:44:15;54758.63;;;-143.77;80.91
13836;BME280;6988;52.614;13.500;2024-03-23T11:49:22;54756.56;;;-143.77;80.84
13836;BME280;6988;52.614;13.500;2024-03-23T11:54:14;54746.31;;;-143.77;81.09
13836;BME280;6988;52.614;13.500;2024-03-23T11:59:06;54748.38;;;-143.77;80.96
13836;BME280;6988;52.614;13.500;2024-03-23T12:03:58;54715.53;;;-143.77;80.52
13836;BME280;6988;52.614;13.500;2024-03-23T12:08:51;54738.09;;;-143.77;79.45
13836;BME280;6988;52.614;13.500;2024-03-23T12:13:44;54723.75;;;-143.77;79.19
13836;BME280;6988;52.614;13.500;2024-03-23T12:18:37;54705.28;;;-143.77;77.98
13836;BME280;6988;52.614;13.500;2024-03-23T12:23:30;54731.94;;;-143.77;77.79
13836;BME280;6988;52.614;13.500;2024-03-23T12:28:24;54713.47;;;-143.77;78.54
13836;BME280;6988;52.614;13.500;2024-03-23T12:33:16;54727.84;;;-143.77;77.69
13836;BME280;6988;52.614;13.500;2024-03-23T12:38:09;54736.06;;;-143.77;78.79
13836;BME280;6988;52.614;13.500;2024-03-23T12:43:00;54701.16;;;-143.77;78.23
13836;BME280;6988;52.614;13.500;2024-03-23T12:47:54;54662.19;;;-143.77;78.33
13836;BME280;6988;52.614;13.500;2024-03-23T12:52:46;54692.97;;;-143.77;78.76
13836;BME280;6988;52.614;13.500;2024-03-23T12:57:38;54664.22;;;-143.77;77.44
13836;BME280;6988;52.614;13.500;2024-03-23T13:02:31;54674.50;;;-143.77;77.19
13836;BME280;6988;52.614;13.500;2024-03-23T13:07:26;54672.44;;;-143.77;76.70
13836;BME280;6988;52.614;13.500;2024-03-23T13:12:18;54658.06;;;-143.77;76.04
13836;BME280;6988;52.614;13.500;2024-03-23T13:17:11;54695.00;;;-143.77;75.81
13836;BME280;6988;52.614;13.500;2024-03-23T13:22:03;54651.91;;;-143.77;73.84
13836;BME280;6988;52.614;13.500;2024-03-23T13:26:57;54666.28;;;-143.77;72.73
13836;BME280;6988;52.614;13.500;2024-03-23T13:31:51;54627.28;;;-143.77;72.32
13836;BME280;6988;52.614;13.500;2024-03-23T13:36:43;54582.16;;;-143.77;72.64
13836;BME280;6988;52.614;13.500;2024-03-23T13:41:35;54608.81;;;-143.77;72.56
13836;BME280;6988;52.614;13.500;2024-03-23T13:46:28;54528.78;;;-143.77;71.63
13836;BME280;6988;52.614;13.500;2024-03-23T13:51:24;54602.66;;;-143.77;69.46
13836;BME280;6988;52.614;13.500;2024-03-23T13:56:17;54549.31;;;-143.77;69.36
13836;BME280;6988;52.614;13.500;2024-03-23T14:01:09;54594.47;;;-143.77;68.61
13836;BME280;6988;52.614;13.500;2024-03-23T14:06:04;54621.13;;;-143.77;68.97
13836;BME280;6988;52.614;13.500;2024-03-23T14:10:58;54578.03;;;-143.77;69.63
13836;BME280;6988;52.614;13.500;2024-03-23T14:15:53;54610.88;;;-143.77;69.60
13836;BME280;6988;52.614;13.500;2024-03-23T14:20:44;54614.97;;;-143.77;68.97
13836;BME280;6988;52.614;13.500;2024-03-23T14:25:38;54651.91;;;-143.77;69.69
13836;BME280;6988;52.614;13.500;2024-03-23T14:30:30;54676.53;;;-143.77;69.34
13836;BME280;6988;52.614;13.500;2024-03-23T14:35:22;54688.84;;;-143.77;71.16
13836;BME280;6988;52.614;13.500;2024-03-23T14:40:14;54744.25;;;-143.77;73.17
13836;BME280;6988;52.614;13.500;2024-03-23T14:45:08;54742.22;;;-143.77;75.27
13836;BME280;6988;52.614;13.500;2024-03-23T14:50:02;54791.47;;;-143.77;76.54
13836;BME280;6988;52.614;13.500;2024-03-23T14:54:54;54791.47;;;-143.77;77.39
13836;BME280;6988;52.614;13.500;2024-03-23T14:59:50;54766.84;;;-143.77;79.44
13836;BME280;6988;52.614;13.500;2024-03-23T15:04:44;54752.47;;;-143.77;79.70
13836;BME280;6988;52.614;13.500;2024-03-23T15:09:35;54738.09;;;-143.77;80.26
13836;BME280;6988;52.614;13.500;2024-03-23T15:14:27;54666.28;;;-143.77;80.31
13836;BME280;6988;52.614;13.500;2024-03-23T15:19:19;54668.34;;;-143.77;79.85
13836;BME280;6988;52.614;13.500;2024-03-23T15:24:12;54680.66;;;-143.77;77.83
13836;BME280;6988;52.614;13.500;2024-03-23T15:29:04;54651.91;;;-143.77;78.15
13836;BME280;6988;52.614;13.500;2024-03-23T15:34:01;54621.13;;;-143.77;78.20
13836;BME280;6988;52.614;13.500;2024-03-23T15:38:54;54662.19;;;-143.77;78.17
13836;BME280;6988;52.614;13.500;2024-03-23T15:43:47;54676.53;;;-143.77;77.68
13836;BME280;6988;52.614;13.500;2024-03-23T15:48:39;54645.75;;;-143.77;77.44
13836;BME280;6988;52.614;13.500;2024-03-23T15:53:36;54686.81;;;-143.77;77.46
13836;BME280;6988;52.614;13.500;2024-03-23T15:58:30;54680.66;;;-143.77;77.84
13836;BME280;6988;52.614;13.500;2024-03-23T16:03:26;54684.75;;;-143.77;78.63
13836;BME280;6988;52.614;13.500;2024-03-23T16:08:18;54690.91;;;-143.77;78.27
13836;BME280;6988;52.614;13.500;2024-03-23T16:13:10;54699.13;;;-143.77;77.97
13836;BME280;6988;52.614;13.500;2024-03-23T16:18:02;54697.06;;;-143.77;77.18
13836;BME280;6988;52.614;13.500;2024-03-23T16:22:59;54742.22;;;-143.77;77.31
13836;BME280;6988;52.614;13.500;2024-03-23T16:27:51;54721.69;;;-143.77;76.53
13836;BME280;6988;52.614;13.500;2024-03-23T16:32:43;54719.63;;;-143.77;76.56
13836;BME280;6988;52.614;13.500;2024-03-23T16:37:34;54727.84;;;-143.77;76.35
13836;BME280;6988;52.614;13.500;2024-03-23T16:42:27;54734.00;;;-143.77;75.82
13836;BME280;6988;52.614;13.500;2024-03-23T16:47:20;54717.59;;;-143.77;75.50
13836;BME280;6988;52.614;13.500;2024-03-23T16:52:12;54734.00;;;-143.77;74.23
13836;BME280;6988;52.614;13.500;2024-03-23T16:57:04;54731.94;;;-143.77;74.15
13836;BME280;6988;52.614;13.500;2024-03-23T17:01:57;54740.16;;;-143.77;74.45
13836;BME280;6988;52.614;13.500;2024-03-23T17:06:49;54752.47;;;-143.77;74.39
13836;BME280;6988;52.614;13.500;2024-03-23T17:11:41;54803.78;;;-143.77;74.34
13836;BME280;6988;52.614;13.500;2024-03-23T17:16:34;54725.78;;;-143.77;74.32
13836;BME280;6988;52.614;13.500;2024-03-23T17:21:27;54740.16;;;-143.77;74.54
13836;BME280;6988;52.614;13.500;2024-03-23T17:26:19;54723.75;;;-143.77;74.83
13836;BME280;6988;52.614;13.500;2024-03-23T17:31:15;54766.84;;;-143.77;74.86
13836;BME280;6988;52.614;13.500;2024-03-23T17:36:08;54754.53;;;-143.77;75.21
13836;BME280;6988;52.614;13.500;2024-03-23T17:41:01;54758.63;;;-143.77;75.30
13836;BME280;6988;52.614;13.500;2024-03-23T17:45:54;54781.19;;;-143.77;75.64
13836;BME280;6988;52.614;13.500;2024-03-23T17:50:46;54729.91;;;-143.77;75.66
13836;BME280;6988;52.614;13.500;2024-03-23T17:55:38;54742.22;;;-143.77;75.73
13836;BME280;6988;52.614;13.500;2024-03-23T18:00:33;54758.63;;;-143.77;76.30
13836;BME280;6988;52.614;13.500;2024-03-23T18:05:24;54789.41;;;-143.77;76.19
13836;BME280;6988;52.614;13.500;2024-03-23T18:10:16;54744.25;;;-143.77;76.84
13836;BME280;6988;52.614;13.500;2024-03-23T18:15:09;54793.50;;;-143.77;76.45
13836;BME280;6988;52.614;13.500;2024-03-23T18:20:02;54762.72;;;-143.77;76.43
13836;BME280;6988;52.614;13.500;2024-03-23T18:24:55;54775.03;;;-143.77;77.95
13836;BME280;6988;52.614;13.500;2024-03-23T18:29:47;54762.72;;;-143.77;77.82
13836;BME280;6988;52.614;13.500;2024-03-23T18:34:39;54795.56;;;-143.77;78.21
13836;BME280;6988;52.614;13.500;2024-03-23T18:39:32;54770.94;;;-143.77;78.82
13836;BME280;6988;52.614;13.500;2024-03-23T18:44:24;54766.84;;;-143.77;78.98
13836;BME280;6988;52.614;13.500;2024-03-23T18:49:16;54791.47;;;-143.77;79.15
13836;BME280;6988;52.614;13.500;2024-03-23T18:54:09;54799.66;;;-143.77;78.87
13836;BME280;6988;52.614;13.500;2024-03-23T18:59:02;54820.19;;;-143.77;79.62
13836;BME280;6988;52.614;13.500;2024-03-23T19:03:54;54797.63;;;-143.77;79.35
13836;BME280;6988;52.614;13.500;2024-03-23T19:08:46;54820.19;;;-143.77;78.28
13836;BME280;6988;52.614;13.500;2024-03-23T19:13:37;54779.16;;;-143.77;77.42
13836;BME280;6988;52.614;13.500;2024-03-23T19:18:31;54801.72;;;-143.77;76.12
13836;BME280;6988;52.614;13.500;2024-03-23T19:23:24;54783.25;;;-143.77;75.55
13836;BME280;6988;52.614;13.500;2024-03-23T19:28:17;54797.63;;;-143.77;75.57
13836;BME280;6988;52.614;13.500;2024-03-23T19:33:10;54791.47;;;-143.77;76.11
13836;BME280;6988;52.614;13.500;2024-03-23T19:38:04;54807.88;;;-143.77;76.74
13836;BME280;6988;52.614;13.500;2024-03-23T19:42:56;54836.59;;;-143.77;76.83
13836;BME280;6988;52.614;13.500;2024-03-23T19:47:48;54795.56;;;-143.77;77.11
13836;BME280;6988;52.614;13.500;2024-03-23T19:52:40;54816.09;;;-143.77;77.54
13836;BME280;6988;52.614;13.500;2024-03-23T19:57:33;54807.88;;;-143.77;77.46
13836;BME280;6988;52.614;13.500;2024-03-23T20:02:25;54801.72;;;-143.77;77.73
13836;BME280;6988;52.614;13.500;2024-03-23T20:07:17;54807.88;;;-143.77;77.41
13836;BME280;6988;52.614;13.500;2024-03-23T20:12:09;54857.13;;;-143.77;77.58
13836;BME280;6988;52.614;13.500;2024-03-23T20:17:03;54863.28;;;-143.77;78.13
13836;BME280;6988;52.614;13.500;2024-03-23T20:21:55;54814.03;;;-143.77;77.92
13836;BME280;6988;52.614;13.500;2024-03-23T20:26:47;54844.81;;;-143.77;78.54
13836;BME280;6988;52.614;13.500;2024-03-23T20:31:40;54826.34;;;-143.77;78.99
13836;BME280;6988;52.614;13.500;2024-03-23T20:36:33;54853.03;;;-143.77;79.30
13836;BME280;6988;52.614;13.500;2024-03-23T20:41:25;54822.25;;;-143.77;79.51
13836;BME280;6988;52.614;13.500;2024-03-23T20:46:18;54836.59;;;-143.77;79.25
13836;BME280;6988;52.614;13.500;2024-03-23T20:51:09;54838.66;;;-143.77;79.38
13836;BME280;6988;52.614;13.500;2024-03-23T20:56:05;54840.72;;;-143.77;79.52
13836;BME280;6988;52.614;13.500;2024-03-23T21:00:59;54830.44;;;-143.77;79.31
13836;BME280;6988;52.614;13.500;2024-03-23T21:05:52;54836.59;;;-143.77;79.75
13836;BME280;6988;52.614;13.500;2024-03-23T21:10:49;54857.13;;;-143.77;80.20
13836;BME280;6988;52.614;13.500;2024-03-23T21:15:47;54869.44;;;-143.77;80.05
13836;BME280;6988;52.614;13.500;2024-03-23T21:20:38;54826.34;;;-143.77;80.04
13836;BME280;6988;52.614;13.500;2024-03-23T21:25:30;54871.50;;;-143.77;80.83
13836;BME280;6988;52.614;13.500;2024-03-23T21:30:22;54846.88;;;-143.77;81.18
13836;BME280;6988;52.614;13.500;2024-03-23T21:35:15;54848.91;;;-143.77;81.30
13836;BME280;6988;52.614;13.500;2024-03-23T21:40:08;54865.34;;;-143.77;82.04
13836;BME280;6988;52.614;13.500;2024-03-23T21:45:01;54877.66;;;-143.77;81.75
13836;BME280;6988;52.614;13.500;2024-03-23T21:49:53;54820.19;;;-143.77;82.12
13836;BME280;6988;52.614;13.500;2024-03-23T21:54:46;54824.28;;;-143.77;81.85
13836;BME280;6988;52.614;13.500;2024-03-23T21:59:38;54842.75;;;-143.77;81.86
13836;BME280;6988;52.614;13.500;2024-03-23T22:04:30;54865.34;;;-143.77;81.66
13836;BME280;6988;52.614;13.500;2024-03-23T22:09:22;54877.66;;;-143.77;81.21
13836;BME280;6988;52.614;13.500;2024-03-23T22:14:15;54832.50;;;-143.77;81.41
13836;BME280;6988;52.614;13.500;2024-03-23T22:19:07;54844.81;;;-143.77;81.44
13836;BME280;6988;52.614;13.500;2024-03-23T22:23:59;54850.97;;;-143.77;81.57
13836;BME280;6988;52.614;13.500;2024-03-23T22:28:51;54859.19;;;-143.77;81.10
13836;BME280;6988;52.614;13.500;2024-03-23T22:33:44;54881.75;;;-143.77;80.87
13836;BME280;6988;52.614;13.500;2024-03-23T22:38:36;54853.03;;;-143.77;81.05
13836;BME280;6988;52.614;13.500;2024-03-23T22:43:30;54861.22;;;-143.77;80.95
13836;BME280;6988;52.614;13.500;2024-03-23T23:04:49;54879.69;;;-143.77;82.39
13836;BME280;6988;52.614;13.500;2024-03-23T23:09:40;54869.44;;;-143.77;82.73
13836;BME280;6988;52.614;13.500;2024-03-23T23:14:32;54859.19;;;-143.77;82.38
13836;BME280;6988;52.614;13.500;2024-03-23T23:19:24;54906.38;;;-143.77;82.15
13836;BME280;6988;52.614;13.500;2024-03-23T23:24:20;54857.13;;;-143.77;82.25
13836;BME280;6988;52.614;13.500;2024-03-23T23:29:12;54877.66;;;-143.77;82.03
13836;BME280;6988;52.614;13.500;2024-03-23T23:34:04;54877.66;;;-143.77;81.23
13836;BME280;6988;52.614;13.500;2024-03-23T23:38:56;54869.44;;;-143.77;81.13
13836;BME280;6988;52.614;13.500;2024-03-23T23:43:56;54892.00;;;-143.77;81.65
13836;BME280;6988;52.614;13.500;2024-03-23T23:48:49;54855.06;;;-143.77;81.49
13836;BME280;6988;52.614;13.500;2024-03-23T23:53:41;54857.13;;;-143.77;81.29
13836;BME280;6988;52.614;13.500;2024-03-23T23:58:34;54859.19;;;-143.77;81.16
